sensor_id;sensor_type;location;lat;lon;timestamp;P1;durP1;ratioP1;P2;durP2;ratioP2
20713;SDS011;10518;50.742;4.226;2023-02-15T00:01:24;5.07;;;3.07;;
20713;SDS011;10518;50.742;4.226;2023-02-15T00:03:50;2.33;;;2.13;;
20713;SDS011;10518;50.742;4.226;2023-02-15T00:06:16;3.17;;;2.03;;
20713;SDS011;10518;50.742;4.226;2023-02-15T00:08:42;3.70;;;2.70;;
20713;SDS011;10518;50.742;4.226;2023-02-15T00:11:09;9.57;;;3.47;;
20713;SDS011;10518;50.742;4.226;2023-02-15T00:13:37;22.77;;;4.03;;
20713;SDS011;10518;50.742;4.226;2023-02-15T00:16:06;2.83;;;2.63;;
20713;SDS011;10518;50.742;4.226;2023-02-15T00:18:34;10.07;;;3.33;;
20713;SDS011;10518;50.742;4.226;2023-02-15T00:21:04;3.87;;;2.73;;
20713;SDS011;10518;50.742;4.226;2023-02-15T00:23:32;2.77;;;2.03;;
20713;SDS011;10518;50.742;4.226;2023-02-15T00:26:07;5.00;;;3.63;;
20713;SDS011;10518;50.742;4.226;2023-02-15T00:28:34;12.30;;;3.13;;
20713;SDS011;10518;50.742;4.226;2023-02-15T00:31:04;2.53;;;2.33;;
20713;SDS011;10518;50.742;4.226;2023-02-15T00:33:34;6.73;;;2.80;;
20713;SDS011;10518;50.742;4.226;2023-02-15T00:36:00;5.43;;;3.07;;
20713;SDS011;10518;50.742;4.226;2023-02-15T00:38:27;2.43;;;2.23;;
20713;SDS011;10518;50.742;4.226;2023-02-15T00:40:54;3.30;;;2.80;;
20713;SDS011;10518;50.742;4.226;2023-02-15T00:43:21;4.03;;;3.03;;
20713;SDS011;10518;50.742;4.226;2023-02-15T00:45:47;2.80;;;2.43;;
20713;SDS011;10518;50.742;4.226;2023-02-15T00:48:13;3.50;;;2.70;;
20713;SDS011;10518;50.742;4.226;2023-02-15T00:50:38;11.00;;;3.50;;
20713;SDS011;10518;50.742;4.226;2023-02-15T00:53:04;3.73;;;3.27;;
20713;SDS011;10518;50.742;4.226;2023-02-15T00:55:30;5.37;;;3.33;;
20713;SDS011;10518;50.742;4.226;2023-02-15T00:57:56;3.50;;;2.80;;
20713;SDS011;10518;50.742;4.226;2023-02-15T01:00:21;7.40;;;3.63;;
20713;SDS011;10518;50.742;4.226;2023-02-15T01:02:47;6.93;;;4.60;;
20713;SDS011;10518;50.742;4.226;2023-02-15T01:05:12;5.70;;;3.73;;
20713;SDS011;10518;50.742;4.226;2023-02-15T01:07:38;4.20;;;2.03;;
20713;SDS011;10518;50.742;4.226;2023-02-15T01:10:07;3.77;;;2.23;;
20713;SDS011;10518;50.742;4.226;2023-02-15T01:12:33;3.30;;;1.90;;
20713;SDS011;10518;50.742;4.226;2023-02-15T01:14:58;2.50;;;1.77;;
20713;SDS011;10518;50.742;4.226;2023-02-15T01:17:24;5.33;;;2.77;;
20713;SDS011;10518;50.742;4.226;2023-02-15T01:19:50;7.70;;;2.83;;
20713;SDS011;10518;50.742;4.226;2023-02-15T01:22:16;5.20;;;2.83;;
20713;SDS011;10518;50.742;4.226;2023-02-15T01:24:42;4.90;;;3.63;;
20713;SDS011;10518;50.742;4.226;2023-02-15T01:27:08;1.93;;;1.67;;
20713;SDS011;10518;50.742;4.226;2023-02-15T01:29:34;2.43;;;2.23;;
20713;SDS011;10518;50.742;4.226;2023-02-15T01:32:00;4.20;;;2.67;;
20713;SDS011;10518;50.742;4.226;2023-02-15T01:34:26;3.27;;;2.67;;
20713;SDS011;10518;50.742;4.226;2023-02-15T01:36:51;5.37;;;2.50;;
20713;SDS011;10518;50.742;4.226;2023-02-15T01:39:17;4.63;;;3.47;;
20713;SDS011;10518;50.742;4.226;2023-02-15T01:41:42;2.37;;;2.00;;
20713;SDS011;10518;50.742;4.226;2023-02-15T01:47:55;2.57;;;2.20;;
20713;SDS011;10518;50.742;4.226;2023-02-15T01:50:08;4.40;;;2.47;;
20713;SDS011;10518;50.742;4.226;2023-02-15T01:52:38;4.43;;;2.47;;
20713;SDS011;10518;50.742;4.226;2023-02-15T01:55:07;9.03;;;3.47;;
20713;SDS011;10518;50.742;4.226;2023-02-15T01:57:33;4.87;;;3.00;;
20713;SDS011;10518;50.742;4.226;2023-02-15T02:00:00;4.53;;;2.07;;
20713;SDS011;10518;50.742;4.226;2023-02-15T02:02:30;9.53;;;2.93;;
20713;SDS011;10518;50.742;4.226;2023-02-15T02:04:58;3.43;;;3.10;;
20713;SDS011;10518;50.742;4.226;2023-02-15T02:07:31;3.20;;;2.43;;
20713;SDS011;10518;50.742;4.226;2023-02-15T02:10:01;7.87;;;3.73;;
20713;SDS011;10518;50.742;4.226;2023-02-15T02:12:28;2.93;;;2.63;;
20713;SDS011;10518;50.742;4.226;2023-02-15T02:14:53;6.60;;;4.43;;
20713;SDS011;10518;50.742;4.226;2023-02-15T02:33:57;7.60;;;3.27;;
20713;SDS011;10518;50.742;4.226;2023-02-15T02:36:43;6.03;;;2.83;;
20713;SDS011;10518;50.742;4.226;2023-02-15T02:39:33;4.50;;;2.97;;
20713;SDS011;10518;50.742;4.226;2023-02-15T02:49:37;2.27;;;1.97;;
20713;SDS011;10518;50.742;4.226;2023-02-15T02:52:51;7.70;;;3.90;;
20713;SDS011;10518;50.742;4.226;2023-02-15T02:55:03;6.30;;;3.47;;
20713;SDS011;10518;50.742;4.226;2023-02-15T02:57:33;6.13;;;3.03;;
20713;SDS011;10518;50.742;4.226;2023-02-15T03:00:02;5.73;;;3.90;;
20713;SDS011;10518;50.742;4.226;2023-02-15T03:02:35;6.83;;;3.07;;
20713;SDS011;10518;50.742;4.226;2023-02-15T03:05:07;3.90;;;2.43;;
20713;SDS011;10518;50.742;4.226;2023-02-15T03:07:36;1.50;;;1.40;;
20713;SDS011;10518;50.742;4.226;2023-02-15T03:10:03;2.57;;;2.37;;
20713;SDS011;10518;50.742;4.226;2023-02-15T03:12:32;3.97;;;3.07;;
20713;SDS011;10518;50.742;4.226;2023-02-15T03:15:04;2.80;;;1.27;;
20713;SDS011;10518;50.742;4.226;2023-02-15T03:17:34;2.40;;;2.20;;
20713;SDS011;10518;50.742;4.226;2023-02-15T03:20:11;6.30;;;4.03;;
20713;SDS011;10518;50.742;4.226;2023-02-15T03:23:32;2.97;;;2.63;;
20713;SDS011;10518;50.742;4.226;2023-02-15T03:25:43;3.93;;;2.57;;
20713;SDS011;10518;50.742;4.226;2023-02-15T03:28:13;5.47;;;2.47;;
20713;SDS011;10518;50.742;4.226;2023-02-15T03:30:42;4.43;;;3.30;;
20713;SDS011;10518;50.742;4.226;2023-02-15T03:33:13;2.10;;;1.90;;
20713;SDS011;10518;50.742;4.226;2023-02-15T03:35:50;2.97;;;2.53;;
20713;SDS011;10518;50.742;4.226;2023-02-15T03:38:24;2.80;;;2.27;;
20713;SDS011;10518;50.742;4.226;2023-02-15T03:40:59;2.30;;;2.07;;
20713;SDS011;10518;50.742;4.226;2023-02-15T03:43:38;2.57;;;2.37;;
20713;SDS011;10518;50.742;4.226;2023-02-15T03:49:03;4.13;;;2.33;;
20713;SDS011;10518;50.742;4.226;2023-02-15T03:51:53;3.60;;;3.30;;
20713;SDS011;10518;50.742;4.226;2023-02-15T03:54:22;3.20;;;2.50;;
20713;SDS011;10518;50.742;4.226;2023-02-15T03:59:58;6.33;;;3.10;;
20713;SDS011;10518;50.742;4.226;2023-02-15T04:02:52;4.23;;;3.37;;
20713;SDS011;10518;50.742;4.226;2023-02-15T04:05:20;2.60;;;1.93;;
20713;SDS011;10518;50.742;4.226;2023-02-15T04:07:46;2.83;;;2.27;;
20713;SDS011;10518;50.742;4.226;2023-02-15T04:10:12;4.20;;;2.83;;
20713;SDS011;10518;50.742;4.226;2023-02-15T04:12:56;2.40;;;1.93;;
20713;SDS011;10518;50.742;4.226;2023-02-15T04:15:22;2.73;;;1.80;;
20713;SDS011;10518;50.742;4.226;2023-02-15T04:18:06;7.03;;;3.40;;
20713;SDS011;10518;50.742;4.226;2023-02-15T04:20:31;8.13;;;2.97;;
20713;SDS011;10518;50.742;4.226;2023-02-15T04:23:15;1.93;;;1.80;;
20713;SDS011;10518;50.742;4.226;2023-02-15T04:26:02;3.80;;;3.10;;
20713;SDS011;10518;50.742;4.226;2023-02-15T04:28:29;5.13;;;3.73;;
20713;SDS011;10518;50.742;4.226;2023-02-15T04:30:55;2.73;;;2.43;;
20713;SDS011;10518;50.742;4.226;2023-02-15T04:33:20;7.57;;;2.70;;
20713;SDS011;10518;50.742;4.226;2023-02-15T04:35:46;2.57;;;2.37;;
20713;SDS011;10518;50.742;4.226;2023-02-15T04:38:11;5.60;;;2.40;;
20713;SDS011;10518;50.742;4.226;2023-02-15T04:40:37;1.63;;;1.53;;
20713;SDS011;10518;50.742;4.226;2023-02-15T04:43:03;6.53;;;2.77;;
20713;SDS011;10518;50.742;4.226;2023-02-15T04:45:28;2.33;;;2.10;;
20713;SDS011;10518;50.742;4.226;2023-02-15T04:47:54;2.17;;;1.70;;
20713;SDS011;10518;50.742;4.226;2023-02-15T04:50:19;8.57;;;3.97;;
20713;SDS011;10518;50.742;4.226;2023-02-15T04:52:45;1.63;;;1.53;;
20713;SDS011;10518;50.742;4.226;2023-02-15T04:55:11;1.90;;;1.50;;
20713;SDS011;10518;50.742;4.226;2023-02-15T04:57:36;4.03;;;2.47;;
20713;SDS011;10518;50.742;4.226;2023-02-15T05:00:02;4.30;;;2.63;;
20713;SDS011;10518;50.742;4.226;2023-02-15T05:02:28;1.87;;;1.63;;
20713;SDS011;10518;50.742;4.226;2023-02-15T05:04:53;10.37;;;2.23;;
20713;SDS011;10518;50.742;4.226;2023-02-15T05:07:19;4.60;;;2.53;;
20713;SDS011;10518;50.742;4.226;2023-02-15T05:09:45;2.33;;;2.17;;
20713;SDS011;10518;50.742;4.226;2023-02-15T05:12:11;5.57;;;3.10;;
20713;SDS011;10518;50.742;4.226;2023-02-15T05:14:36;1.63;;;1.40;;
20713;SDS011;10518;50.742;4.226;2023-02-15T05:17:02;3.17;;;1.63;;
20713;SDS011;10518;50.742;4.226;2023-02-15T05:19:28;1.50;;;1.40;;
20713;SDS011;10518;50.742;4.226;2023-02-15T05:21:54;3.50;;;1.43;;
20713;SDS011;10518;50.742;4.226;2023-02-15T05:24:19;3.13;;;1.93;;
20713;SDS011;10518;50.742;4.226;2023-02-15T05:27:04;4.20;;;2.53;;
20713;SDS011;10518;50.742;4.226;2023-02-15T05:29:48;2.40;;;1.67;;
20713;SDS011;10518;50.742;4.226;2023-02-15T05:32:14;1.93;;;1.77;;
20713;SDS011;10518;50.742;4.226;2023-02-15T05:34:39;3.03;;;2.73;;
20713;SDS011;10518;50.742;4.226;2023-02-15T05:37:05;3.10;;;2.33;;
20713;SDS011;10518;50.742;4.226;2023-02-15T05:39:32;2.30;;;2.10;;
20713;SDS011;10518;50.742;4.226;2023-02-15T05:41:58;1.93;;;1.73;;
20713;SDS011;10518;50.742;4.226;2023-02-15T05:44:24;4.00;;;2.27;;
20713;SDS011;10518;50.742;4.226;2023-02-15T05:46:50;1.43;;;1.27;;
20713;SDS011;10518;50.742;4.226;2023-02-15T05:49:16;2.10;;;1.83;;
20713;SDS011;10518;50.742;4.226;2023-02-15T05:51:41;10.27;;;2.40;;
20713;SDS011;10518;50.742;4.226;2023-02-15T05:54:07;2.53;;;1.90;;
20713;SDS011;10518;50.742;4.226;2023-02-15T05:56:32;5.03;;;3.40;;
20713;SDS011;10518;50.742;4.226;2023-02-15T05:58:58;2.13;;;1.87;;
20713;SDS011;10518;50.742;4.226;2023-02-15T06:01:23;7.77;;;2.63;;
20713;SDS011;10518;50.742;4.226;2023-02-15T06:03:49;2.40;;;2.07;;
20713;SDS011;10518;50.742;4.226;2023-02-15T06:06:15;2.20;;;1.67;;
20713;SDS011;10518;50.742;4.226;2023-02-15T06:08:41;8.27;;;1.73;;
20713;SDS011;10518;50.742;4.226;2023-02-15T06:11:07;6.20;;;2.00;;
20713;SDS011;10518;50.742;4.226;2023-02-15T06:13:33;2.50;;;1.83;;
20713;SDS011;10518;50.742;4.226;2023-02-15T06:15:59;9.17;;;2.10;;
20713;SDS011;10518;50.742;4.226;2023-02-15T06:18:25;3.40;;;2.17;;
20713;SDS011;10518;50.742;4.226;2023-02-15T06:20:51;2.83;;;2.23;;
20713;SDS011;10518;50.742;4.226;2023-02-15T06:23:16;7.30;;;2.27;;
20713;SDS011;10518;50.742;4.226;2023-02-15T06:25:43;2.10;;;1.47;;
20713;SDS011;10518;50.742;4.226;2023-02-15T06:28:10;2.27;;;1.70;;
20713;SDS011;10518;50.742;4.226;2023-02-15T06:30:35;3.07;;;1.60;;
20713;SDS011;10518;50.742;4.226;2023-02-15T06:33:01;2.47;;;1.63;;
20713;SDS011;10518;50.742;4.226;2023-02-15T06:35:27;1.77;;;1.47;;
20713;SDS011;10518;50.742;4.226;2023-02-15T06:37:52;3.40;;;2.23;;
20713;SDS011;10518;50.742;4.226;2023-02-15T06:40:18;4.07;;;1.90;;
20713;SDS011;10518;50.742;4.226;2023-02-15T06:42:44;2.07;;;1.73;;
20713;SDS011;10518;50.742;4.226;2023-02-15T06:45:10;3.73;;;2.07;;
20713;SDS011;10518;50.742;4.226;2023-02-15T06:47:36;5.20;;;2.37;;
20713;SDS011;10518;50.742;4.226;2023-02-15T06:50:03;4.40;;;1.60;;
20713;SDS011;10518;50.742;4.226;2023-02-15T06:52:29;1.73;;;1.50;;
20713;SDS011;10518;50.742;4.226;2023-02-15T06:54:55;2.10;;;1.33;;
20713;SDS011;10518;50.742;4.226;2023-02-15T06:57:21;4.33;;;2.07;;
20713;SDS011;10518;50.742;4.226;2023-02-15T06:59:46;2.00;;;1.47;;
20713;SDS011;10518;50.742;4.226;2023-02-15T07:02:12;3.63;;;2.83;;
20713;SDS011;10518;50.742;4.226;2023-02-15T07:04:37;2.00;;;1.80;;
20713;SDS011;10518;50.742;4.226;2023-02-15T07:07:03;3.43;;;2.10;;
20713;SDS011;10518;50.742;4.226;2023-02-15T07:09:32;1.70;;;1.30;;
20713;SDS011;10518;50.742;4.226;2023-02-15T07:11:58;5.37;;;3.03;;
20713;SDS011;10518;50.742;4.226;2023-02-15T07:14:42;1.80;;;1.70;;
20713;SDS011;10518;50.742;4.226;2023-02-15T07:17:07;3.37;;;1.67;;
20713;SDS011;10518;50.742;4.226;2023-02-15T07:19:33;4.37;;;3.10;;
20713;SDS011;10518;50.742;4.226;2023-02-15T07:21:58;7.53;;;2.27;;
20713;SDS011;10518;50.742;4.226;2023-02-15T07:24:24;5.93;;;3.47;;
20713;SDS011;10518;50.742;4.226;2023-02-15T07:26:50;1.83;;;1.73;;
20713;SDS011;10518;50.742;4.226;2023-02-15T07:29:15;7.67;;;2.90;;
20713;SDS011;10518;50.742;4.226;2023-02-15T07:31:41;10.27;;;4.63;;
20713;SDS011;10518;50.742;4.226;2023-02-15T07:34:11;1.53;;;1.43;;
20713;SDS011;10518;50.742;4.226;2023-02-15T07:36:37;4.27;;;3.03;;
20713;SDS011;10518;50.742;4.226;2023-02-15T07:39:02;4.80;;;2.73;;
20713;SDS011;10518;50.742;4.226;2023-02-15T07:41:28;1.87;;;1.73;;
20713;SDS011;10518;50.742;4.226;2023-02-15T07:43:54;3.50;;;2.37;;
20713;SDS011;10518;50.742;4.226;2023-02-15T07:46:19;1.57;;;1.47;;
20713;SDS011;10518;50.742;4.226;2023-02-15T07:48:46;3.50;;;2.13;;
20713;SDS011;10518;50.742;4.226;2023-02-15T07:51:12;1.90;;;1.80;;
20713;SDS011;10518;50.742;4.226;2023-02-15T07:53:39;1.57;;;1.47;;
20713;SDS011;10518;50.742;4.226;2023-02-15T07:56:12;4.57;;;2.83;;
20713;SDS011;10518;50.742;4.226;2023-02-15T07:58:38;17.53;;;2.20;;
20713;SDS011;10518;50.742;4.226;2023-02-15T08:01:17;5.40;;;2.83;;
20713;SDS011;10518;50.742;4.226;2023-02-15T08:03:45;2.87;;;2.27;;
20713;SDS011;10518;50.742;4.226;2023-02-15T08:06:11;3.37;;;2.70;;
20713;SDS011;10518;50.742;4.226;2023-02-15T08:08:38;2.93;;;2.57;;
20713;SDS011;10518;50.742;4.226;2023-02-15T08:11:20;2.83;;;2.50;;
20713;SDS011;10518;50.742;4.226;2023-02-15T08:13:58;2.90;;;2.63;;
20713;SDS011;10518;50.742;4.226;2023-02-15T08:16:47;4.87;;;3.17;;
20713;SDS011;10518;50.742;4.226;2023-02-15T08:21:51;4.53;;;3.63;;
20713;SDS011;10518;50.742;4.226;2023-02-15T08:24:28;5.40;;;2.53;;
20713;SDS011;10518;50.742;4.226;2023-02-15T08:26:56;5.60;;;2.90;;
20713;SDS011;10518;50.742;4.226;2023-02-15T08:29:24;4.80;;;3.97;;
20713;SDS011;10518;50.742;4.226;2023-02-15T08:31:55;10.40;;;6.13;;
20713;SDS011;10518;50.742;4.226;2023-02-15T08:34:27;3.47;;;3.20;;
20713;SDS011;10518;50.742;4.226;2023-02-15T08:36:54;4.00;;;3.03;;
20713;SDS011;10518;50.742;4.226;2023-02-15T08:39:20;11.40;;;4.73;;
20713;SDS011;10518;50.742;4.226;2023-02-15T08:41:46;4.60;;;3.47;;
20713;SDS011;10518;50.742;4.226;2023-02-15T08:44:13;4.00;;;2.43;;
20713;SDS011;10518;50.742;4.226;2023-02-15T08:46:41;5.67;;;3.77;;
20713;SDS011;10518;50.742;4.226;2023-02-15T08:49:08;4.70;;;3.93;;
20713;SDS011;10518;50.742;4.226;2023-02-15T08:51:37;2.77;;;2.57;;
20713;SDS011;10518;50.742;4.226;2023-02-15T08:54:04;5.23;;;2.70;;
20713;SDS011;10518;50.742;4.226;2023-02-15T08:56:39;5.33;;;3.53;;
20713;SDS011;10518;50.742;4.226;2023-02-15T08:59:06;5.90;;;2.50;;
20713;SDS011;10518;50.742;4.226;2023-02-15T09:01:36;3.40;;;3.10;;
20713;SDS011;10518;50.742;4.226;2023-02-15T09:04:03;3.90;;;2.10;;
20713;SDS011;10518;50.742;4.226;2023-02-15T09:06:31;6.57;;;3.20;;
20713;SDS011;10518;50.742;4.226;2023-02-15T09:08:56;10.33;;;3.50;;
20713;SDS011;10518;50.742;4.226;2023-02-15T09:11:23;2.70;;;2.47;;
20713;SDS011;10518;50.742;4.226;2023-02-15T09:13:57;4.73;;;2.27;;
20713;SDS011;10518;50.742;4.226;2023-02-15T09:16:25;2.90;;;2.33;;
20713;SDS011;10518;50.742;4.226;2023-02-15T09:18:52;6.97;;;4.73;;
20713;SDS011;10518;50.742;4.226;2023-02-15T09:21:19;4.63;;;3.77;;
20713;SDS011;10518;50.742;4.226;2023-02-15T09:23:47;5.33;;;3.50;;
20713;SDS011;10518;50.742;4.226;2023-02-15T09:26:18;5.37;;;3.70;;
20713;SDS011;10518;50.742;4.226;2023-02-15T09:28:45;8.57;;;3.63;;
20713;SDS011;10518;50.742;4.226;2023-02-15T09:31:16;4.47;;;3.90;;
20713;SDS011;10518;50.742;4.226;2023-02-15T09:33:44;4.27;;;3.87;;
20713;SDS011;10518;50.742;4.226;2023-02-15T09:36:18;8.40;;;3.43;;
20713;SDS011;10518;50.742;4.226;2023-02-15T09:38:45;6.03;;;3.83;;
20713;SDS011;10518;50.742;4.226;2023-02-15T09:55:19;6.70;;;3.00;;
20713;SDS011;10518;50.742;4.226;2023-02-15T10:17:34;6.43;;;3.90;;
20713;SDS011;10518;50.742;4.226;2023-02-15T10:20:20;8.20;;;3.23;;
20713;SDS011;10518;50.742;4.226;2023-02-15T10:25:47;7.33;;;4.90;;
20713;SDS011;10518;50.742;4.226;2023-02-15T10:31:22;9.00;;;4.33;;
20713;SDS011;10518;50.742;4.226;2023-02-15T10:33:48;7.57;;;4.07;;
20713;SDS011;10518;50.742;4.226;2023-02-15T11:04:51;16.17;;;9.93;;
20713;SDS011;10518;50.742;4.226;2023-02-15T11:09:51;8.67;;;4.33;;
20713;SDS011;10518;50.742;4.226;2023-02-15T11:12:38;12.73;;;7.03;;
20713;SDS011;10518;50.742;4.226;2023-02-15T11:17:48;12.87;;;4.77;;
20713;SDS011;10518;50.742;4.226;2023-02-15T11:20:35;12.57;;;5.20;;
20713;SDS011;10518;50.742;4.226;2023-02-15T11:23:12;8.87;;;5.60;;
20713;SDS011;10518;50.742;4.226;2023-02-15T11:25:41;9.37;;;5.70;;
20713;SDS011;10518;50.742;4.226;2023-02-15T11:28:11;14.57;;;7.83;;
20713;SDS011;10518;50.742;4.226;2023-02-15T11:30:48;44.33;;;17.30;;
20713;SDS011;10518;50.742;4.226;2023-02-15T11:33:18;9.87;;;5.27;;
20713;SDS011;10518;50.742;4.226;2023-02-15T11:38:36;11.67;;;6.57;;
20713;SDS011;10518;50.742;4.226;2023-02-15T11:41:12;14.80;;;5.63;;
20713;SDS011;10518;50.742;4.226;2023-02-15T11:43:57;10.10;;;6.10;;
20713;SDS011;10518;50.742;4.226;2023-02-15T11:46:25;12.33;;;6.50;;
20713;SDS011;10518;50.742;4.226;2023-02-15T11:48:51;14.13;;;6.07;;
20713;SDS011;10518;50.742;4.226;2023-02-15T11:51:17;6.93;;;4.17;;
20713;SDS011;10518;50.742;4.226;2023-02-15T11:53:45;10.17;;;4.97;;
20713;SDS011;10518;50.742;4.226;2023-02-15T11:56:13;6.77;;;5.37;;
20713;SDS011;10518;50.742;4.226;2023-02-15T11:58:45;15.77;;;6.03;;
20713;SDS011;10518;50.742;4.226;2023-02-15T12:01:27;11.77;;;5.63;;
20713;SDS011;10518;50.742;4.226;2023-02-15T12:04:01;19.33;;;5.17;;
20713;SDS011;10518;50.742;4.226;2023-02-15T12:06:29;10.67;;;5.47;;
20713;SDS011;10518;50.742;4.226;2023-02-15T12:09:02;14.23;;;5.40;;
20713;SDS011;10518;50.742;4.226;2023-02-15T12:11:37;13.90;;;6.60;;
20713;SDS011;10518;50.742;4.226;2023-02-15T12:14:05;12.53;;;5.67;;
20713;SDS011;10518;50.742;4.226;2023-02-15T12:16:45;12.43;;;4.90;;
20713;SDS011;10518;50.742;4.226;2023-02-15T12:19:33;11.17;;;5.23;;
20713;SDS011;10518;50.742;4.226;2023-02-15T12:22:05;9.70;;;5.70;;
20713;SDS011;10518;50.742;4.226;2023-02-15T12:24:45;3.53;;;2.63;;
20713;SDS011;10518;50.742;4.226;2023-02-15T12:27:16;8.90;;;5.83;;
20713;SDS011;10518;50.742;4.226;2023-02-15T12:29:51;4.63;;;3.70;;
20713;SDS011;10518;50.742;4.226;2023-02-15T12:41:38;9.87;;;4.70;;
20713;SDS011;10518;50.742;4.226;2023-02-15T12:44:18;8.03;;;4.07;;
20713;SDS011;10518;50.742;4.226;2023-02-15T12:49:29;10.80;;;4.07;;
20713;SDS011;10518;50.742;4.226;2023-02-15T12:52:00;11.47;;;5.77;;
20713;SDS011;10518;50.742;4.226;2023-02-15T12:54:31;8.90;;;5.63;;
20713;SDS011;10518;50.742;4.226;2023-02-15T12:59:56;10.63;;;3.93;;
20713;SDS011;10518;50.742;4.226;2023-02-15T13:02:36;7.13;;;4.33;;
20713;SDS011;10518;50.742;4.226;2023-02-15T13:05:51;9.57;;;5.50;;
20713;SDS011;10518;50.742;4.226;2023-02-15T13:07:56;8.57;;;4.87;;
20713;SDS011;10518;50.742;4.226;2023-02-15T13:13:18;6.20;;;3.67;;
20713;SDS011;10518;50.742;4.226;2023-02-15T13:15:48;11.15;;;4.63;;
20713;SDS011;10518;50.742;4.226;2023-02-15T13:18:19;8.57;;;5.20;;
20713;SDS011;10518;50.742;4.226;2023-02-15T13:20:52;7.05;;;4.95;;
20713;SDS011;10518;50.742;4.226;2023-02-15T13:23:27;11.50;;;5.70;;
20713;SDS011;10518;50.742;4.226;2023-02-15T13:25:58;9.80;;;5.37;;
20713;SDS011;10518;50.742;4.226;2023-02-15T13:28:38;9.73;;;5.00;;
20713;SDS011;10518;50.742;4.226;2023-02-15T13:31:15;12.17;;;6.30;;
20713;SDS011;10518;50.742;4.226;2023-02-15T13:33:51;11.43;;;5.93;;
20713;SDS011;10518;50.742;4.226;2023-02-15T13:36:29;9.47;;;4.40;;
20713;SDS011;10518;50.742;4.226;2023-02-15T13:41:32;6.90;;;5.57;;
20713;SDS011;10518;50.742;4.226;2023-02-15T13:44:51;11.18;;;4.90;;
20713;SDS011;10518;50.742;4.226;2023-02-15T13:47:06;11.00;;;5.20;;
20713;SDS011;10518;50.742;4.226;2023-02-15T13:52:20;10.60;;;6.03;;
20713;SDS011;10518;50.742;4.226;2023-02-15T14:05:56;11.07;;;5.33;;
20713;SDS011;10518;50.742;4.226;2023-02-15T14:08:33;10.25;;;5.97;;
20713;SDS011;10518;50.742;4.226;2023-02-15T14:11:18;8.25;;;4.70;;
20713;SDS011;10518;50.742;4.226;2023-02-15T14:16:36;14.32;;;6.47;;
20713;SDS011;10518;50.742;4.226;2023-02-15T14:22:12;16.70;;;6.22;;
20713;SDS011;10518;50.742;4.226;2023-02-15T14:24:41;8.52;;;6.00;;
20713;SDS011;10518;50.742;4.226;2023-02-15T14:30:17;9.23;;;5.00;;
20713;SDS011;10518;50.742;4.226;2023-02-15T14:32:46;14.48;;;6.78;;
20713;SDS011;10518;50.742;4.226;2023-02-15T14:35:22;14.35;;;7.53;;
20713;SDS011;10518;50.742;4.226;2023-02-15T14:48:53;12.40;;;6.15;;
20713;SDS011;10518;50.742;4.226;2023-02-15T14:56:41;9.40;;;5.20;;
20713;SDS011;10518;50.742;4.226;2023-02-15T15:01:41;14.98;;;7.45;;
20713;SDS011;10518;50.742;4.226;2023-02-15T15:04:13;21.05;;;6.70;;
20713;SDS011;10518;50.742;4.226;2023-02-15T15:06:57;17.52;;;7.10;;
20713;SDS011;10518;50.742;4.226;2023-02-15T15:09:28;10.75;;;6.47;;
20713;SDS011;10518;50.742;4.226;2023-02-15T15:11:55;11.27;;;6.28;;
20713;SDS011;10518;50.742;4.226;2023-02-15T15:14:38;12.23;;;6.63;;
20713;SDS011;10518;50.742;4.226;2023-02-15T15:17:06;12.15;;;6.50;;
20713;SDS011;10518;50.742;4.226;2023-02-15T15:22:23;11.32;;;6.13;;
20713;SDS011;10518;50.742;4.226;2023-02-15T15:24:53;10.10;;;5.75;;
20713;SDS011;10518;50.742;4.226;2023-02-15T15:30:51;13.77;;;5.32;;
20713;SDS011;10518;50.742;4.226;2023-02-15T15:33:18;10.53;;;5.97;;
20713;SDS011;10518;50.742;4.226;2023-02-15T15:49:49;13.27;;;5.63;;
20713;SDS011;10518;50.742;4.226;2023-02-15T15:52:21;15.80;;;6.30;;
20713;SDS011;10518;50.742;4.226;2023-02-15T15:54:48;14.40;;;7.50;;
20713;SDS011;10518;50.742;4.226;2023-02-15T15:59:48;12.03;;;6.13;;
20713;SDS011;10518;50.742;4.226;2023-02-15T16:02:15;9.20;;;5.70;;
20713;SDS011;10518;50.742;4.226;2023-02-15T16:04:42;11.47;;;5.00;;
20713;SDS011;10518;50.742;4.226;2023-02-15T16:12:29;16.93;;;7.27;;
20713;SDS011;10518;50.742;4.226;2023-02-15T16:14:56;10.57;;;5.53;;
20713;SDS011;10518;50.742;4.226;2023-02-15T16:17:24;14.90;;;6.20;;
20713;SDS011;10518;50.742;4.226;2023-02-15T16:19:59;11.53;;;4.80;;
20713;SDS011;10518;50.742;4.226;2023-02-15T16:22:30;11.20;;;7.27;;
20713;SDS011;10518;50.742;4.226;2023-02-15T16:27:49;13.07;;;5.93;;
20713;SDS011;10518;50.742;4.226;2023-02-15T16:30:24;9.83;;;5.37;;
20713;SDS011;10518;50.742;4.226;2023-02-15T16:33:03;13.23;;;5.47;;
20713;SDS011;10518;50.742;4.226;2023-02-15T16:35:31;9.37;;;5.20;;
20713;SDS011;10518;50.742;4.226;2023-02-15T16:37:57;8.40;;;4.63;;
20713;SDS011;10518;50.742;4.226;2023-02-15T16:42:52;16.00;;;7.03;;
20713;SDS011;10518;50.742;4.226;2023-02-15T16:45:23;9.70;;;5.33;;
20713;SDS011;10518;50.742;4.226;2023-02-15T16:47:52;9.27;;;5.20;;
20713;SDS011;10518;50.742;4.226;2023-02-15T16:50:23;11.50;;;6.57;;
20713;SDS011;10518;50.742;4.226;2023-02-15T16:52:54;17.77;;;6.80;;
20713;SDS011;10518;50.742;4.226;2023-02-15T16:55:25;9.07;;;5.20;;
20713;SDS011;10518;50.742;4.226;2023-02-15T16:57:56;13.67;;;4.67;;
20713;SDS011;10518;50.742;4.226;2023-02-15T17:00:26;6.83;;;4.33;;
20713;SDS011;10518;50.742;4.226;2023-02-15T17:03:00;12.63;;;7.20;;
20713;SDS011;10518;50.742;4.226;2023-02-15T17:05:40;13.37;;;7.03;;
20713;SDS011;10518;50.742;4.226;2023-02-15T17:08:13;9.90;;;5.57;;
20713;SDS011;10518;50.742;4.226;2023-02-15T17:13:25;7.87;;;4.97;;
20713;SDS011;10518;50.742;4.226;2023-02-15T17:18:24;7.10;;;5.03;;
20713;SDS011;10518;50.742;4.226;2023-02-15T17:20:53;6.63;;;3.90;;
20713;SDS011;10518;50.742;4.226;2023-02-15T17:23:31;9.17;;;5.10;;
20713;SDS011;10518;50.742;4.226;2023-02-15T17:26:31;9.93;;;5.30;;
20713;SDS011;10518;50.742;4.226;2023-02-15T17:29:01;8.57;;;5.07;;
20713;SDS011;10518;50.742;4.226;2023-02-15T17:31:36;7.73;;;5.43;;
20713;SDS011;10518;50.742;4.226;2023-02-15T17:34:02;10.33;;;4.83;;
20713;SDS011;10518;50.742;4.226;2023-02-15T17:36:28;7.57;;;5.37;;
20713;SDS011;10518;50.742;4.226;2023-02-15T17:41:29;10.93;;;6.53;;
20713;SDS011;10518;50.742;4.226;2023-02-15T17:43:59;17.03;;;6.00;;
20713;SDS011;10518;50.742;4.226;2023-02-15T17:46:25;12.07;;;7.17;;
20713;SDS011;10518;50.742;4.226;2023-02-15T17:48:54;10.97;;;4.80;;
20713;SDS011;10518;50.742;4.226;2023-02-15T17:51:21;8.43;;;4.63;;
20713;SDS011;10518;50.742;4.226;2023-02-15T17:53:47;8.67;;;5.37;;
20713;SDS011;10518;50.742;4.226;2023-02-15T17:56:32;7.27;;;4.73;;
20713;SDS011;10518;50.742;4.226;2023-02-15T17:58:58;8.97;;;5.03;;
20713;SDS011;10518;50.742;4.226;2023-02-15T18:01:24;11.50;;;6.43;;
20713;SDS011;10518;50.742;4.226;2023-02-15T18:04:08;14.60;;;5.53;;
20713;SDS011;10518;50.742;4.226;2023-02-15T18:06:57;9.40;;;6.77;;
20713;SDS011;10518;50.742;4.226;2023-02-15T18:09:42;9.97;;;5.90;;
20713;SDS011;10518;50.742;4.226;2023-02-15T18:12:27;8.17;;;5.03;;
20713;SDS011;10518;50.742;4.226;2023-02-15T18:14:53;8.83;;;6.73;;
20713;SDS011;10518;50.742;4.226;2023-02-15T18:17:21;14.73;;;6.77;;
20713;SDS011;10518;50.742;4.226;2023-02-15T18:19:53;11.60;;;6.07;;
20713;SDS011;10518;50.742;4.226;2023-02-15T18:22:19;10.63;;;6.67;;
20713;SDS011;10518;50.742;4.226;2023-02-15T18:24:46;6.13;;;5.53;;
20713;SDS011;10518;50.742;4.226;2023-02-15T18:27:14;16.57;;;5.90;;
20713;SDS011;10518;50.742;4.226;2023-02-15T18:29:40;12.37;;;6.43;;
20713;SDS011;10518;50.742;4.226;2023-02-15T18:32:07;8.23;;;6.30;;
20713;SDS011;10518;50.742;4.226;2023-02-15T18:34:40;9.10;;;5.87;;
20713;SDS011;10518;50.742;4.226;2023-02-15T18:37:09;10.53;;;5.50;;